createdAt,value
2023-11-30T00:00:23.276Z,100165.63
2023-11-30T00:02:53.507Z,100163.97
2023-11-30T00:05:24.029Z,100168.31
2023-11-30T00:07:54.222Z,100165.78
2023-11-30T00:10:24.872Z,100154.59
2023-11-30T00:12:55.004Z,100155.47
2023-11-30T00:15:25.387Z,100154.59
2023-11-30T00:17:55.669Z,100152.00
2023-11-30T00:20:25.930Z,100151.94
2023-11-30T00:22:55.937Z,100145.84
2023-11-30T00:25:27.835Z,100150.94
2023-11-30T00:27:57.857Z,100146.66
2023-11-30T00:30:28.336Z,100142.44
2023-11-30T00:32:58.670Z,100142.44
2023-11-30T00:35:29.058Z,100147.38
2023-11-30T00:37:59.102Z,100143.84
2023-11-30T00:40:29.511Z,100140.47
2023-11-30T00:42:59.579Z,100141.28
2023-11-30T00:45:30.008Z,100139.66
2023-11-30T00:48:00.592Z,100139.69
2023-11-30T00:50:31.010Z,100128.56
2023-11-30T00:53:01.064Z,100129.38
2023-11-30T00:55:31.457Z,100135.25
2023-11-30T00:58:01.354Z,100137.81
2023-11-30T01:00:31.608Z,100127.53
2023-11-30T01:03:01.567Z,100124.06
2023-11-30T01:05:32.045Z,100124.91
2023-11-30T01:08:01.961Z,100122.31
2023-11-30T01:10:32.194Z,100123.13
2023-11-30T01:13:02.164Z,100129.13
2023-11-30T01:15:32.634Z,100121.41
2023-11-30T01:18:05.978Z,100127.34
2023-11-30T01:20:37.655Z,100115.28
2023-11-30T01:23:07.581Z,100120.34
2023-11-30T01:25:37.916Z,100120.19
2023-11-30T01:28:08.303Z,100109.84
2023-11-30T01:30:38.492Z,100111.50
2023-11-30T01:33:08.638Z,100111.44
2023-11-30T01:35:38.946Z,100098.53
2023-11-30T01:38:08.951Z,100099.31
2023-11-30T01:40:39.244Z,100101.09
2023-11-30T01:43:09.436Z,100100.06
2023-11-30T01:45:40.273Z,100109.50
2023-11-30T01:48:11.905Z,100103.44
2023-11-30T01:50:42.444Z,100104.28
2023-11-30T01:53:12.662Z,100104.41
2023-11-30T01:55:43.239Z,100098.38
2023-11-30T01:58:15.024Z,100091.53
2023-11-30T02:00:45.845Z,100094.00
2023-11-30T02:03:17.933Z,100090.34
2023-11-30T02:05:48.347Z,100098.81
2023-11-30T02:08:19.082Z,100138.22
2023-11-30T02:10:49.306Z,100144.25
2023-11-30T02:13:19.395Z,100141.78
2023-11-30T02:15:50.194Z,100151.28
2023-11-30T02:18:20.436Z,100142.81
2023-11-30T02:20:50.844Z,100148.69
2023-11-30T02:23:21.113Z,100148.72
2023-11-30T02:25:51.557Z,100146.13
2023-11-30T02:28:21.461Z,100152.91
2023-11-30T02:30:51.793Z,100145.31
2023-11-30T02:33:22.178Z,100146.28
2023-11-30T02:35:52.894Z,100142.81
2023-11-30T02:38:23.084Z,100137.53
2023-11-30T02:40:53.561Z,100134.91
2023-11-30T02:43:23.876Z,100134.00
2023-11-30T02:45:54.335Z,100129.69
2023-11-30T02:48:24.992Z,100122.84
2023-11-30T02:50:55.248Z,100115.00
2023-11-30T02:53:25.248Z,100118.25
2023-11-30T02:55:55.188Z,100113.88
2023-11-30T02:58:25.360Z,100112.03
2023-11-30T03:00:55.617Z,100110.34
2023-11-30T03:03:25.619Z,100106.00
2023-11-30T03:05:56.438Z,100103.41
2023-11-30T03:08:26.579Z,100102.53
2023-11-30T03:10:57.037Z,100106.69
2023-11-30T03:13:27.144Z,100103.22
2023-11-30T03:15:57.520Z,100106.56
2023-11-30T03:18:27.786Z,100096.34
2023-11-30T03:20:58.109Z,100092.97
2023-11-30T03:23:28.068Z,100098.94
2023-11-30T03:25:58.244Z,100099.00
2023-11-30T03:28:29.115Z,100098.22
2023-11-30T03:30:59.343Z,100097.34
2023-11-30T03:33:29.280Z,100092.97
2023-11-30T03:35:59.486Z,100092.13
2023-11-30T03:38:29.459Z,100094.75
2023-11-30T03:41:00.624Z,100101.56
2023-11-30T03:43:30.965Z,100092.19
2023-11-30T03:46:01.273Z,100088.75
2023-11-30T03:48:31.322Z,100084.56
2023-11-30T03:51:01.834Z,100089.91
2023-11-30T03:53:31.957Z,100081.50
2023-11-30T03:56:02.492Z,100079.03
2023-11-30T03:58:32.466Z,100076.44
2023-11-30T04:01:02.982Z,100076.53
2023-11-30T04:03:33.610Z,100074.78
2023-11-30T04:06:04.675Z,100075.63
2023-11-30T04:08:34.959Z,100076.31
2023-11-30T04:11:05.956Z,100074.56
2023-11-30T04:13:35.894Z,100066.00
2023-11-30T04:16:06.645Z,100077.09
2023-11-30T04:18:36.747Z,100070.13
2023-11-30T04:21:08.274Z,100071.81
2023-11-30T04:23:38.442Z,100076.97
2023-11-30T04:26:09.089Z,100070.97
2023-11-30T04:28:39.277Z,100071.03
2023-11-30T04:31:10.338Z,100067.63
2023-11-30T04:33:40.573Z,100065.97
2023-11-30T04:36:11.512Z,100069.94
2023-11-30T04:38:41.505Z,100068.06
2023-11-30T04:41:12.120Z,100067.94
2023-11-30T04:43:42.414Z,100067.25
2023-11-30T04:46:12.948Z,100062.22
2023-11-30T04:48:43.167Z,100063.78
2023-11-30T04:51:13.696Z,100065.50
2023-11-30T04:53:43.884Z,100059.66
2023-11-30T04:56:14.294Z,100057.84
2023-11-30T04:58:44.456Z,100054.41
2023-11-30T05:01:14.970Z,100055.31
2023-11-30T05:03:45.879Z,100052.75
2023-11-30T05:06:16.344Z,100050.25
2023-11-30T05:08:46.582Z,100052.81
2023-11-30T05:11:17.677Z,100045.94
2023-11-30T05:13:47.768Z,100053.72
2023-11-30T05:16:18.245Z,100049.34
2023-11-30T05:18:48.603Z,100050.13
2023-11-30T05:21:19.124Z,100050.16
2023-11-30T05:23:49.388Z,100046.84
2023-11-30T05:26:19.768Z,100056.34
2023-11-30T05:28:49.968Z,100050.31
2023-11-30T05:31:20.509Z,100055.44
2023-11-30T05:33:50.812Z,100060.50
2023-11-30T05:36:21.526Z,100054.38
2023-11-30T05:38:51.578Z,100055.16
2023-11-30T05:41:22.094Z,100050.91
2023-11-30T05:43:52.242Z,100052.59
2023-11-30T05:46:22.896Z,100054.31
2023-11-30T05:48:53.354Z,100052.47
2023-11-30T05:51:23.868Z,100056.75
2023-11-30T05:53:54.106Z,100057.69
2023-11-30T05:56:24.581Z,100053.44
2023-11-30T05:58:54.814Z,100056.94
2023-11-30T06:01:25.269Z,100056.06
2023-11-30T06:03:55.847Z,100057.84
2023-11-30T06:06:26.380Z,100062.94
2023-11-30T06:08:57.110Z,100062.09
2023-11-30T06:11:27.730Z,100063.06
2023-11-30T06:13:58.962Z,100070.75
2023-11-30T06:16:30.240Z,100063.91
2023-11-30T06:19:00.218Z,100064.81
2023-11-30T06:21:30.285Z,100067.50
2023-11-30T06:24:00.405Z,100068.53
2023-11-30T06:26:30.882Z,100067.66
2023-11-30T06:29:00.943Z,100072.78
2023-11-30T06:31:31.259Z,100073.81
2023-11-30T06:34:01.302Z,100080.78
2023-11-30T06:36:32.341Z,100087.50
2023-11-30T06:39:04.235Z,100077.13
2023-11-30T06:41:34.717Z,100086.53
2023-11-30T06:44:05.047Z,100080.59
2023-11-30T06:46:37.483Z,100077.16
2023-11-30T06:49:07.497Z,100086.66
2023-11-30T06:51:38.149Z,100088.50
2023-11-30T06:54:08.315Z,100079.19
2023-11-30T06:56:38.773Z,100086.84
2023-11-30T06:59:08.801Z,100081.72
2023-11-30T07:01:39.358Z,100087.00
2023-11-30T07:04:09.598Z,100086.41
2023-11-30T07:06:40.225Z,100084.00
2023-11-30T07:09:13.620Z,100089.22
2023-11-30T07:11:43.952Z,100080.66
2023-11-30T07:14:14.601Z,100084.81
2023-11-30T07:16:45.043Z,100082.25
2023-11-30T07:19:15.351Z,100080.59
2023-11-30T07:21:45.799Z,100081.50
2023-11-30T07:24:16.007Z,100085.88
2023-11-30T07:26:49.081Z,100090.31
2023-11-30T07:29:19.734Z,100086.13
2023-11-30T07:31:52.103Z,100086.22
2023-11-30T07:34:22.118Z,100088.91
2023-11-30T07:36:52.686Z,100084.72
2023-11-30T07:39:22.894Z,100080.50
2023-11-30T07:41:53.281Z,100085.72
2023-11-30T07:44:23.520Z,100087.41
2023-11-30T07:46:53.785Z,100089.06
2023-11-30T07:49:23.745Z,100089.00
2023-11-30T07:51:54.230Z,100084.75
2023-11-30T07:54:25.409Z,100090.72
2023-11-30T07:56:55.943Z,100087.41
2023-11-30T07:59:26.211Z,100083.22
2023-11-30T08:01:56.667Z,100082.53
2023-11-30T08:04:26.778Z,100090.41
2023-11-30T08:06:57.257Z,100083.56
2023-11-30T08:09:27.394Z,100089.59
2023-11-30T08:11:57.755Z,100093.78
2023-11-30T08:14:27.726Z,100092.97
2023-11-30T08:16:59.485Z,100097.28
2023-11-30T08:19:29.653Z,100090.50
2023-11-30T08:21:59.921Z,100092.44
2023-11-30T08:24:30.464Z,100089.97
2023-11-30T08:27:01.189Z,100101.91
2023-11-30T08:29:31.189Z,100097.53
2023-11-30T08:32:01.775Z,100097.44
2023-11-30T08:34:32.025Z,100095.72
2023-11-30T08:37:02.366Z,100096.56
2023-11-30T08:39:32.514Z,100093.28
2023-11-30T08:42:03.043Z,100096.13
2023-11-30T08:44:36.304Z,100103.03
2023-11-30T08:47:06.750Z,100106.59
2023-11-30T08:49:36.984Z,100100.72
2023-11-30T08:52:07.474Z,100104.16
2023-11-30T08:54:38.998Z,100101.50
2023-11-30T08:57:13.100Z,100107.44
2023-11-30T08:59:43.115Z,100103.25
2023-11-30T09:02:14.451Z,100097.53
2023-11-30T09:04:45.833Z,100097.69
2023-11-30T09:07:16.178Z,100107.13
2023-11-30T09:09:49.470Z,100093.47
2023-11-30T09:12:22.164Z,100089.25
2023-11-30T09:14:52.540Z,100100.44
2023-11-30T09:17:23.052Z,100099.75
2023-11-30T09:19:53.227Z,100103.97
2023-11-30T09:22:23.712Z,100105.69
2023-11-30T09:24:53.856Z,100100.72
2023-11-30T09:27:24.256Z,100102.47
2023-11-30T09:29:55.541Z,100100.78
2023-11-30T09:32:25.839Z,100098.31
2023-11-30T09:34:56.046Z,100098.38
2023-11-30T09:37:26.505Z,100101.00
2023-11-30T09:39:56.498Z,100089.88
2023-11-30T09:42:27.969Z,100098.44
2023-11-30T09:45:01.703Z,100094.16
2023-11-30T09:47:32.833Z,100083.00
2023-11-30T09:50:03.435Z,100084.81
2023-11-30T09:52:33.825Z,100088.22
2023-11-30T09:55:04.485Z,100082.16
2023-11-30T09:57:35.357Z,100078.81
2023-11-30T10:00:08.935Z,100084.81
2023-11-30T10:02:39.229Z,100082.97
2023-11-30T10:05:10.610Z,100085.56
2023-11-30T10:07:40.855Z,100079.63
2023-11-30T10:10:10.781Z,100078.00
2023-11-30T10:12:41.455Z,100072.84
2023-11-30T10:15:11.759Z,100075.38
2023-11-30T10:17:42.884Z,100076.28
2023-11-30T10:20:13.913Z,100066.94
2023-11-30T10:22:44.265Z,100072.81
2023-11-30T10:25:14.395Z,100068.56
2023-11-30T10:27:48.694Z,100060.13
2023-11-30T10:30:19.933Z,100061.91
2023-11-30T10:32:50.785Z,100054.16
2023-11-30T10:35:22.609Z,100055.94
2023-11-30T10:37:54.769Z,100049.09
2023-11-30T10:40:28.703Z,100048.28
2023-11-30T10:43:04.854Z,100047.47
2023-11-30T10:45:38.421Z,100045.78
2023-11-30T10:48:12.988Z,100045.00
2023-11-30T10:50:43.351Z,100041.63
2023-11-30T10:53:42.481Z,100044.22
2023-11-30T10:56:14.929Z,100043.44
2023-11-30T10:58:45.441Z,100042.69
2023-11-30T11:01:15.507Z,100041.03
2023-11-30T11:03:53.643Z,100040.22
2023-11-30T11:06:28.182Z,100038.56
2023-11-30T11:09:06.881Z,100038.59
2023-11-30T11:11:41.576Z,100024.03
2023-11-30T11:14:34.075Z,100034.38
2023-11-30T11:17:10.694Z,100030.97
2023-11-30T11:19:42.853Z,100035.25
2023-11-30T11:22:27.314Z,100030.91
2023-11-30T11:24:59.684Z,100023.25
2023-11-30T11:27:31.679Z,100031.88
2023-11-30T11:30:08.671Z,100029.34
2023-11-30T11:32:41.191Z,100018.28
2023-11-30T11:35:12.040Z,100020.06
2023-11-30T11:37:42.241Z,100012.47
2023-11-30T11:40:12.936Z,100012.47
2023-11-30T11:42:42.929Z,100005.56
2023-11-30T11:45:13.465Z,100006.31
2023-11-30T11:47:43.899Z,100014.91
2023-11-30T11:50:14.311Z,100014.06
2023-11-30T11:52:44.981Z,100017.53
2023-11-30T11:55:15.355Z,100019.19
2023-11-30T11:57:46.176Z,100026.00
2023-11-30T12:00:21.696Z,100021.75
2023-11-30T12:02:52.852Z,100028.59
2023-11-30T12:05:26.887Z,100028.53
2023-11-30T12:08:00.576Z,100026.78
2023-11-30T12:10:42.619Z,100027.66
2023-11-30T12:13:14.393Z,100030.19
2023-11-30T12:15:47.750Z,100030.25
2023-11-30T12:18:20.364Z,100029.41
2023-11-30T12:20:50.929Z,100032.00
2023-11-30T12:23:20.944Z,100033.72
2023-11-30T12:25:54.086Z,100024.31
2023-11-30T12:28:25.709Z,100023.53
2023-11-30T12:30:56.198Z,100018.31
2023-11-30T12:33:26.504Z,100022.69
2023-11-30T12:35:57.075Z,100020.97
2023-11-30T12:38:27.377Z,100019.31
2023-11-30T12:40:58.111Z,100020.94
2023-11-30T12:43:28.230Z,100022.66
2023-11-30T12:45:58.982Z,100029.56
2023-11-30T12:48:29.076Z,100029.63
2023-11-30T12:50:59.378Z,100032.22
2023-11-30T12:53:29.383Z,100023.75
2023-11-30T12:56:00.251Z,100026.31
2023-11-30T12:58:30.537Z,100019.41
2023-11-30T13:01:00.953Z,100019.34
2023-11-30T13:03:31.267Z,100021.91
2023-11-30T13:06:01.967Z,100022.81
2023-11-30T13:08:31.968Z,100031.47
2023-11-30T13:11:03.009Z,100015.22
2023-11-30T13:13:41.896Z,100014.34
2023-11-30T13:16:13.090Z,100010.00
2023-11-30T13:18:43.492Z,100009.97
2023-11-30T13:21:14.302Z,100010.00
2023-11-30T13:23:44.459Z,100004.94
2023-11-30T13:26:16.059Z,99998.91
2023-11-30T13:28:51.849Z,100007.44
2023-11-30T13:31:23.085Z,100005.69
2023-11-30T13:33:53.220Z,100009.09
2023-11-30T13:36:23.394Z,100015.09
2023-11-30T13:38:53.397Z,100018.50
2023-11-30T13:41:24.653Z,100018.44
2023-11-30T13:43:54.729Z,100011.50
2023-11-30T13:46:25.152Z,100016.56
2023-11-30T13:48:55.401Z,100013.94
2023-11-30T13:51:25.917Z,100019.00
2023-11-30T13:53:56.085Z,100020.72
2023-11-30T13:56:26.582Z,100025.00
2023-11-30T13:58:56.744Z,100026.63
2023-11-30T14:01:28.532Z,100013.78
2023-11-30T14:03:58.845Z,100013.81
2023-11-30T14:06:29.216Z,100009.63
2023-11-30T14:08:59.308Z,100009.56
2023-11-30T14:11:29.626Z,100009.56
2023-11-30T14:13:59.965Z,100014.66
2023-11-30T14:16:30.296Z,100010.38
2023-11-30T14:19:01.374Z,100011.28
2023-11-30T14:21:32.035Z,100018.16
2023-11-30T14:24:02.185Z,100014.75
2023-11-30T14:26:32.538Z,100022.53
2023-11-30T14:29:02.630Z,100016.56
2023-11-30T14:31:33.408Z,100024.28
2023-11-30T14:34:04.617Z,100019.13
2023-11-30T14:36:35.162Z,100022.53
2023-11-30T14:39:07.295Z,100025.06
2023-11-30T14:41:38.505Z,100027.59
2023-11-30T14:44:09.476Z,100027.56
2023-11-30T14:46:39.969Z,100034.47
2023-11-30T14:49:10.037Z,100031.09
2023-11-30T14:51:40.411Z,100033.69
2023-11-30T14:54:11.315Z,100034.53
2023-11-30T14:56:42.040Z,100031.13
2023-11-30T14:59:11.985Z,100032.88
2023-11-30T15:01:42.571Z,100031.97
2023-11-30T15:04:13.126Z,100032.81
2023-11-30T15:06:47.112Z,100029.38
2023-11-30T15:09:17.566Z,100030.22
2023-11-30T15:11:47.885Z,100021.69
2023-11-30T15:14:17.807Z,100028.56
2023-11-30T15:16:49.650Z,100027.69
2023-11-30T15:19:19.796Z,100022.56
2023-11-30T15:21:50.240Z,100016.56
2023-11-30T15:24:20.460Z,100020.00
2023-11-30T15:26:51.368Z,100029.38
2023-11-30T15:29:22.601Z,100029.41
2023-11-30T15:31:53.149Z,100026.00
2023-11-30T15:34:23.333Z,100012.28
2023-11-30T15:36:53.874Z,100016.63
2023-11-30T15:39:25.359Z,100016.63
2023-11-30T15:41:55.851Z,100025.22
2023-11-30T15:44:26.025Z,100020.91
2023-11-30T15:46:56.542Z,100022.66
2023-11-30T15:49:27.119Z,100020.97
2023-11-30T15:51:57.588Z,100025.28
2023-11-30T15:54:27.855Z,100036.44
2023-11-30T15:56:58.318Z,100027.91
2023-11-30T15:59:28.300Z,100027.03
2023-11-30T16:01:58.849Z,100022.72
2023-11-30T16:04:29.128Z,100020.97
2023-11-30T16:06:59.618Z,100020.94
2023-11-30T16:09:31.806Z,100024.38
2023-11-30T16:12:02.297Z,100023.53
2023-11-30T16:14:34.892Z,100021.81
2023-11-30T16:17:05.251Z,100020.09
2023-11-30T16:19:36.556Z,100020.00
2023-11-30T16:22:07.537Z,100019.16
2023-11-30T16:24:37.906Z,100024.34
2023-11-30T16:27:08.784Z,100022.66
2023-11-30T16:29:38.798Z,100020.97
2023-11-30T16:32:09.294Z,100015.81
2023-11-30T16:34:39.481Z,100020.84
2023-11-30T16:37:11.143Z,100026.00
2023-11-30T16:39:41.264Z,100018.22
2023-11-30T16:42:11.699Z,100013.97
2023-11-30T16:44:42.240Z,100011.38
2023-11-30T16:47:13.709Z,100012.25
2023-11-30T16:49:44.947Z,100009.66
2023-11-30T16:52:15.463Z,100006.22
2023-11-30T16:54:45.491Z,100019.06
2023-11-30T16:57:15.834Z,100019.97
2023-11-30T16:59:46.270Z,100014.81
2023-11-30T17:02:16.863Z,100017.44
2023-11-30T17:04:46.994Z,100014.88
2023-11-30T17:07:17.346Z,100014.91
2023-11-30T17:09:49.546Z,100011.47
2023-11-30T17:12:20.065Z,100011.47
2023-11-30T17:14:50.263Z,100010.63
2023-11-30T17:17:20.649Z,100016.66
2023-11-30T17:19:50.768Z,100013.19
2023-11-30T17:22:21.196Z,100020.81
2023-11-30T17:24:51.274Z,100022.53
2023-11-30T17:27:21.697Z,100026.78
2023-11-30T17:29:51.909Z,100025.94
2023-11-30T17:32:22.400Z,100024.03
2023-11-30T17:34:53.045Z,100029.09
2023-11-30T17:37:23.641Z,100027.22
2023-11-30T17:39:53.676Z,100026.25
2023-11-30T17:42:24.261Z,100025.38
2023-11-30T17:44:54.485Z,100021.00
2023-11-30T17:47:24.972Z,100029.50
2023-11-30T17:49:55.208Z,100029.44
2023-11-30T17:52:25.680Z,100030.28
2023-11-30T17:54:55.639Z,100026.09
2023-11-30T17:57:26.241Z,100025.22
2023-11-30T17:59:56.417Z,100027.69
2023-11-30T18:02:27.723Z,100031.09
2023-11-30T18:04:57.866Z,100031.09
2023-11-30T18:07:30.657Z,100031.91
2023-11-30T18:10:00.915Z,100029.41
2023-11-30T18:12:31.346Z,100038.84
2023-11-30T18:15:01.321Z,100037.22
2023-11-30T18:17:33.034Z,100029.53
2023-11-30T18:20:03.759Z,100023.41
2023-11-30T18:22:34.709Z,100023.38
2023-11-30T18:25:05.455Z,100019.84
2023-11-30T18:27:35.838Z,100025.00
2023-11-30T18:30:06.686Z,100025.88
2023-11-30T18:32:41.448Z,100020.78
2023-11-30T18:35:13.448Z,100019.94
2023-11-30T18:37:43.811Z,100021.75
2023-11-30T18:40:16.936Z,100019.16
2023-11-30T18:42:47.597Z,100018.19
2023-11-30T18:45:17.811Z,100018.06
2023-11-30T18:47:48.339Z,100016.44
2023-11-30T18:50:19.119Z,100013.94
2023-11-30T18:52:49.971Z,100019.00
2023-11-30T18:55:20.156Z,100017.31
2023-11-30T18:57:51.151Z,100018.16
2023-11-30T19:00:21.496Z,100020.66
2023-11-30T19:02:52.420Z,100016.31
2023-11-30T19:05:22.620Z,100016.31
2023-11-30T19:07:53.664Z,100012.06
2023-11-30T19:10:23.800Z,100012.06
2023-11-30T19:12:54.398Z,100006.94
2023-11-30T19:15:24.646Z,100004.38
2023-11-30T19:17:56.371Z,100006.13
2023-11-30T19:20:28.083Z,100005.28
2023-11-30T19:22:58.808Z,100008.72
2023-11-30T19:25:28.888Z,100003.56
2023-11-30T19:27:59.495Z,100012.94
2023-11-30T19:30:29.718Z,100008.72
2023-11-30T19:33:01.071Z,100011.31
2023-11-30T19:35:33.932Z,100007.91
2023-11-30T19:38:04.240Z,100010.59
2023-11-30T19:40:34.536Z,100000.38
2023-11-30T19:43:05.257Z,100003.78
2023-11-30T19:45:35.175Z,100005.47
2023-11-30T19:48:05.869Z,100005.41
2023-11-30T19:50:35.968Z,100002.78
2023-11-30T19:53:06.372Z,100009.56
2023-11-30T19:55:36.481Z,100009.66
2023-11-30T19:58:07.010Z,100003.75
2023-11-30T20:00:41.941Z,100007.13
2023-11-30T20:03:13.206Z,100000.19
2023-11-30T20:05:43.689Z,100000.19
2023-11-30T20:08:13.974Z,100006.19
2023-11-30T20:10:44.420Z,100007.97
2023-11-30T20:13:14.726Z,100008.84
2023-11-30T20:15:44.648Z,100002.88
2023-11-30T20:18:15.267Z,100004.53
2023-11-30T20:20:45.467Z,100004.47
2023-11-30T20:23:16.067Z,100004.34
2023-11-30T20:25:46.681Z,99998.38
2023-11-30T20:28:17.035Z,100005.19
2023-11-30T20:30:47.242Z,99998.28
2023-11-30T20:33:18.277Z,100000.88
2023-11-30T20:35:48.224Z,99995.72
2023-11-30T20:38:18.396Z,99996.63
2023-11-30T20:40:48.344Z,99995.78
2023-11-30T20:43:18.997Z,99999.28
2023-11-30T20:45:49.186Z,99994.97
2023-11-30T20:48:20.060Z,99995.72
2023-11-30T20:50:50.091Z,99990.59
2023-11-30T20:53:20.407Z,99994.84
2023-11-30T20:55:52.428Z,99989.69
2023-11-30T20:58:22.914Z,99996.63
2023-11-30T21:00:53.208Z,99987.19
2023-11-30T21:13:39.970Z,100002.25
2023-11-30T21:16:10.545Z,99994.44
2023-11-30T21:18:40.878Z,99997.03
2023-11-30T21:21:11.525Z,99987.63
2023-11-30T21:23:41.792Z,99991.09
2023-11-30T21:26:12.339Z,99993.66
2023-11-30T21:28:42.505Z,100000.50
2023-11-30T21:31:13.587Z,99997.78
2023-11-30T21:33:44.138Z,100001.13
2023-11-30T21:36:15.585Z,100000.16
2023-11-30T21:38:46.487Z,99998.34
2023-11-30T21:41:17.121Z,100000.91
2023-11-30T21:43:47.546Z,99997.53
2023-11-30T21:46:18.059Z,100007.69
2023-11-30T21:48:48.585Z,100011.91
2023-11-30T21:51:19.507Z,100011.78
2023-11-30T21:53:49.965Z,100011.78
2023-11-30T21:56:22.531Z,100020.38
2023-11-30T21:58:52.975Z,100020.38
2023-11-30T22:01:23.767Z,100022.13
2023-11-30T22:03:54.802Z,100022.22
2023-11-30T22:06:25.285Z,100018.88
2023-11-30T22:08:56.317Z,100024.84
2023-11-30T22:11:27.028Z,100010.22
2023-11-30T22:13:57.468Z,100015.31
2023-11-30T22:16:33.379Z,100013.66
2023-11-30T22:19:10.685Z,100014.56
2023-11-30T22:21:41.270Z,100013.53
2023-11-30T22:24:11.842Z,100001.53
2023-11-30T22:26:42.747Z,100004.00
2023-11-30T22:29:13.219Z,100007.38
2023-11-30T22:31:43.938Z,100009.09
2023-11-30T22:34:14.529Z,100011.66
2023-11-30T22:36:45.465Z,100009.94
2023-11-30T22:39:15.884Z,100013.41
2023-11-30T22:41:47.528Z,100010.88
2023-11-30T22:44:18.191Z,100024.69
2023-11-30T22:46:49.065Z,100017.00
2023-11-30T22:49:20.899Z,100010.91
2023-11-30T22:51:51.683Z,100009.88
2023-11-30T22:54:22.984Z,100013.16
2023-11-30T22:56:53.555Z,100015.75
2023-11-30T22:59:23.756Z,100016.56
2023-11-30T23:01:54.444Z,100019.19
2023-11-30T23:04:24.980Z,100012.34
2023-11-30T23:06:56.060Z,100013.09
2023-11-30T23:09:26.847Z,100019.03
2023-11-30T23:11:58.483Z,100020.72
2023-11-30T23:14:29.062Z,100026.66
2023-11-30T23:17:00.003Z,100020.59
2023-11-30T23:19:32.753Z,100025.50
2023-11-30T23:22:03.621Z,100023.81
2023-11-30T23:24:34.133Z,100024.50
2023-11-30T23:27:04.995Z,100026.25
2023-11-30T23:29:37.901Z,100026.25
2023-11-30T23:32:08.897Z,100015.06
2023-11-30T23:34:39.574Z,100025.25
2023-11-30T23:37:10.090Z,100020.19
2023-11-30T23:39:40.394Z,100020.81
2023-11-30T23:42:13.125Z,100015.59
2023-11-30T23:44:43.458Z,100013.72
2023-11-30T23:47:14.075Z,100019.66
2023-11-30T23:49:44.602Z,100017.19
2023-11-30T23:52:16.268Z,100023.31
2023-11-30T23:54:47.464Z,100014.75
2023-11-30T23:57:18.023Z,100013.59
2023-11-30T23:59:48.163Z,100023.81
